sensor_id;sensor_type;location;lat;lon;timestamp;P1;durP1;ratioP1;P2;durP2;ratioP2
38162;SDS011;23977;53.078;18.248;2023-04-08T06:07:58;10.82;;;8.63;;
38162;SDS011;23977;53.078;18.248;2023-04-08T06:13:26;9.32;;;8.30;;
38162;SDS011;23977;53.078;18.248;2023-04-08T06:15:51;9.88;;;8.30;;
38162;SDS011;23977;53.078;18.248;2023-04-08T06:18:17;9.45;;;8.35;;
38162;SDS011;23977;53.078;18.248;2023-04-08T06:20:43;9.50;;;8.45;;
38162;SDS011;23977;53.078;18.248;2023-04-08T06:23:08;9.20;;;8.30;;
38162;SDS011;23977;53.078;18.248;2023-04-08T06:25:34;9.32;;;7.75;;
38162;SDS011;23977;53.078;18.248;2023-04-08T06:27:59;9.50;;;8.48;;
38162;SDS011;23977;53.078;18.248;2023-04-08T06:30:25;9.82;;;8.90;;
38162;SDS011;23977;53.078;18.248;2023-04-08T06:32:51;9.27;;;8.27;;
38162;SDS011;23977;53.078;18.248;2023-04-08T06:35:16;9.55;;;8.55;;
38162;SDS011;23977;53.078;18.248;2023-04-08T06:37:42;9.23;;;8.20;;
38162;SDS011;23977;53.078;18.248;2023-04-08T06:40:08;8.43;;;7.57;;
38162;SDS011;23977;53.078;18.248;2023-04-08T06:42:34;8.63;;;7.72;;
38162;SDS011;23977;53.078;18.248;2023-04-08T06:45:00;9.20;;;8.30;;
38162;SDS011;23977;53.078;18.248;2023-04-08T06:47:26;9.95;;;8.80;;
38162;SDS011;23977;53.078;18.248;2023-04-08T06:49:51;8.55;;;7.75;;
38162;SDS011;23977;53.078;18.248;2023-04-08T06:52:18;8.35;;;7.55;;
38162;SDS011;23977;53.078;18.248;2023-04-08T06:54:44;9.00;;;8.10;;
38162;SDS011;23977;53.078;18.248;2023-04-08T06:57:09;10.70;;;8.18;;
38162;SDS011;23977;53.078;18.248;2023-04-08T06:59:36;9.15;;;8.25;;
38162;SDS011;23977;53.078;18.248;2023-04-08T07:02:01;9.55;;;8.65;;
38162;SDS011;23977;53.078;18.248;2023-04-08T07:09:37;10.05;;;9.05;;
38162;SDS011;23977;53.078;18.248;2023-04-08T07:12:04;12.50;;;11.20;;
38162;SDS011;23977;53.078;18.248;2023-04-08T07:14:30;16.08;;;14.40;;
38162;SDS011;23977;53.078;18.248;2023-04-08T07:16:56;14.32;;;12.93;;
38162;SDS011;23977;53.078;18.248;2023-04-08T07:19:21;15.75;;;14.10;;
38162;SDS011;23977;53.078;18.248;2023-04-08T07:21:51;15.38;;;13.85;;
38162;SDS011;23977;53.078;18.248;2023-04-08T07:24:20;16.65;;;13.77;;
38162;SDS011;23977;53.078;18.248;2023-04-08T08:54:19;10.07;;;8.52;;
38162;SDS011;23977;53.078;18.248;2023-04-08T08:57:14;10.35;;;8.00;;
38162;SDS011;23977;53.078;18.248;2023-04-08T08:59:41;10.85;;;9.65;;
38162;SDS011;23977;53.078;18.248;2023-04-08T09:02:22;9.88;;;8.88;;
38162;SDS011;23977;53.078;18.248;2023-04-08T09:04:56;10.20;;;9.15;;
38162;SDS011;23977;53.078;18.248;2023-04-08T09:07:23;9.27;;;8.38;;
38162;SDS011;23977;53.078;18.248;2023-04-08T09:09:51;10.05;;;9.05;;
38162;SDS011;23977;53.078;18.248;2023-04-08T09:12:18;11.57;;;10.43;;
38162;SDS011;23977;53.078;18.248;2023-04-08T09:14:44;9.68;;;8.77;;
38162;SDS011;23977;53.078;18.248;2023-04-08T09:17:11;9.52;;;8.30;;
38162;SDS011;23977;53.078;18.248;2023-04-08T09:19:36;10.20;;;8.82;;
38162;SDS011;23977;53.078;18.248;2023-04-08T09:22:10;8.55;;;7.65;;
38162;SDS011;23977;53.078;18.248;2023-04-08T09:24:35;8.80;;;7.90;;
38162;SDS011;23977;53.078;18.248;2023-04-08T09:27:03;8.95;;;8.05;;
38162;SDS011;23977;53.078;18.248;2023-04-08T09:29:29;8.50;;;7.70;;
38162;SDS011;23977;53.078;18.248;2023-04-08T09:31:55;9.05;;;8.15;;
38162;SDS011;23977;53.078;18.248;2023-04-08T09:34:22;9.82;;;8.15;;
38162;SDS011;23977;53.078;18.248;2023-04-08T09:36:49;8.23;;;7.47;;
38162;SDS011;23977;53.078;18.248;2023-04-08T09:39:15;9.65;;;8.75;;
38162;SDS011;23977;53.078;18.248;2023-04-08T09:41:41;9.73;;;8.82;;
38162;SDS011;23977;53.078;18.248;2023-04-08T09:44:08;9.82;;;8.88;;
38162;SDS011;23977;53.078;18.248;2023-04-08T09:46:35;9.48;;;8.57;;
38162;SDS011;23977;53.078;18.248;2023-04-08T09:49:06;10.18;;;9.18;;
38162;SDS011;23977;53.078;18.248;2023-04-08T09:51:42;9.68;;;8.75;;
38162;SDS011;23977;53.078;18.248;2023-04-08T09:54:14;9.40;;;8.50;;
38162;SDS011;23977;53.078;18.248;2023-04-08T09:56:46;9.05;;;8.25;;
38162;SDS011;23977;53.078;18.248;2023-04-08T09:59:19;9.13;;;8.23;;
38162;SDS011;23977;53.078;18.248;2023-04-08T10:01:52;10.00;;;8.98;;
38162;SDS011;23977;53.078;18.248;2023-04-08T10:04:19;9.15;;;8.25;;
38162;SDS011;23977;53.078;18.248;2023-04-08T10:06:49;9.40;;;8.50;;
38162;SDS011;23977;53.078;18.248;2023-04-08T10:09:19;10.07;;;9.07;;
38162;SDS011;23977;53.078;18.248;2023-04-08T10:11:46;9.27;;;8.48;;
38162;SDS011;23977;53.078;18.248;2023-04-08T10:14:12;10.00;;;9.10;;
38162;SDS011;23977;53.078;18.248;2023-04-08T10:16:38;10.50;;;9.50;;
38162;SDS011;23977;53.078;18.248;2023-04-08T10:19:06;11.25;;;10.15;;
38162;SDS011;23977;53.078;18.248;2023-04-08T10:22:44;11.38;;;10.23;;
38162;SDS011;23977;53.078;18.248;2023-04-08T10:25:27;11.48;;;10.15;;
38162;SDS011;23977;53.078;18.248;2023-04-08T10:27:58;12.18;;;11.05;;
